createdAt,value
2022-08-05T00:02:55.810Z,30.97
2022-08-05T00:08:03.302Z,30.97
2022-08-05T00:13:10.171Z,30.86
2022-08-05T00:18:21.712Z,30.80
2022-08-05T00:23:44.565Z,30.78
2022-08-05T00:28:31.805Z,30.72
2022-08-05T00:34:54.674Z,30.67
2022-08-05T00:38:46.245Z,30.51
2022-08-05T00:43:53.540Z,30.41
2022-08-05T00:49:00.779Z,30.36
2022-08-05T00:54:08.045Z,30.31
2022-08-05T00:59:15.258Z,30.23
2022-08-05T01:04:26.874Z,30.19
2022-08-05T01:09:30.473Z,30.13
2022-08-05T01:14:37.081Z,30.08
2022-08-05T01:20:02.424Z,30.04
2022-08-05T01:24:51.595Z,29.95
2022-08-05T01:29:58.940Z,29.93
2022-08-05T01:35:10.567Z,29.89
2022-08-05T01:40:13.746Z,29.85
2022-08-05T01:45:21.021Z,29.82
2022-08-05T01:50:28.574Z,29.77
2022-08-05T01:55:36.111Z,29.75
2022-08-05T02:00:42.737Z,29.72
2022-08-05T02:05:49.949Z,29.72
2022-08-05T02:10:57.186Z,29.64
2022-08-05T02:16:04.462Z,29.63
2022-08-05T02:21:15.191Z,29.58
2022-08-05T02:26:18.910Z,29.60
2022-08-05T02:31:26.175Z,29.58
2022-08-05T02:36:33.446Z,29.56
2022-08-05T02:41:58.066Z,29.50
2022-08-05T02:46:58.250Z,29.50
2022-08-05T02:52:02.804Z,29.46
2022-08-05T02:57:02.418Z,29.46
2022-08-05T03:02:09.700Z,29.45
2022-08-05T03:07:48.430Z,29.45
2022-08-05T03:12:24.164Z,29.38
2022-08-05T03:17:31.458Z,29.37
2022-08-05T03:22:38.638Z,29.34
2022-08-05T03:27:59.086Z,29.33
2022-08-05T03:32:53.009Z,29.30
2022-08-05T03:38:00.237Z,29.26
2022-08-05T03:43:58.986Z,29.26
2022-08-05T03:48:14.668Z,29.22
2022-08-05T03:55:34.250Z,29.20
2022-08-05T03:58:29.342Z,29.20
2022-08-05T04:03:38.101Z,29.17
2022-08-05T04:08:43.570Z,29.18
2022-08-05T04:13:53.411Z,29.15
2022-08-05T04:18:58.859Z,29.14
2022-08-05T04:24:07.086Z,29.16
2022-08-05T04:29:13.253Z,29.15
2022-08-05T04:34:32.658Z,29.11
2022-08-05T04:39:27.951Z,29.08
2022-08-05T04:44:34.914Z,29.07
2022-08-05T04:50:02.533Z,29.05
2022-08-05T04:54:49.576Z,29.09
2022-08-05T04:59:56.572Z,29.11
2022-08-05T05:05:03.853Z,29.09
2022-08-05T05:10:11.127Z,29.05
2022-08-05T05:15:56.974Z,29.00
2022-08-05T05:20:28.618Z,28.95
2022-08-05T05:25:40.480Z,28.92
2022-08-05T05:30:40.095Z,28.86
2022-08-05T05:35:47.927Z,28.86
2022-08-05T05:40:54.558Z,28.80
2022-08-05T05:46:01.769Z,28.80
2022-08-05T05:51:15.469Z,28.77
2022-08-05T05:56:16.225Z,28.79
2022-08-05T06:01:23.581Z,28.82
2022-08-05T06:06:33.260Z,28.79
2022-08-05T06:11:39.336Z,28.82
2022-08-05T06:16:45.271Z,28.84
2022-08-05T06:21:52.537Z,28.85
2022-08-05T06:26:59.757Z,28.86
2022-08-05T06:32:20.886Z,28.83
2022-08-05T06:37:14.203Z,28.82
2022-08-05T06:42:21.414Z,28.82
2022-08-05T06:48:11.843Z,28.85
2022-08-05T06:52:37.067Z,28.85
2022-08-05T06:58:03.713Z,28.90
2022-08-05T07:02:53.818Z,28.92
2022-08-05T07:07:57.605Z,28.94
2022-08-05T07:13:04.874Z,28.94
2022-08-05T07:18:17.651Z,29.00
2022-08-05T07:23:26.479Z,29.01
2022-08-05T07:28:26.660Z,29.00
2022-08-05T07:33:37.002Z,28.99
2022-08-05T07:38:43.094Z,28.98
2022-08-05T07:43:48.302Z,29.02
2022-08-05T07:49:02.903Z,29.07
2022-08-05T07:54:02.722Z,29.09
2022-08-05T07:59:09.913Z,29.14
2022-08-05T08:04:17.203Z,29.13
2022-08-05T08:09:24.451Z,29.15
2022-08-05T08:14:31.649Z,29.13
2022-08-05T08:20:22.635Z,29.11
2022-08-05T08:24:51.248Z,29.15
2022-08-05T08:30:05.361Z,29.15
2022-08-05T08:35:00.638Z,29.17
2022-08-05T08:40:07.862Z,29.21
2022-08-05T08:45:23.839Z,29.22
2022-08-05T08:50:52.600Z,29.28
2022-08-05T08:56:01.964Z,29.31
2022-08-05T09:00:36.971Z,29.44
2022-08-05T09:06:07.928Z,29.48
2022-08-05T09:10:51.232Z,29.56
2022-08-05T09:15:58.523Z,29.59
2022-08-05T09:21:05.689Z,29.59
2022-08-05T09:26:20.517Z,29.60
2022-08-05T09:32:38.671Z,29.60
2022-08-05T09:36:33.543Z,29.61
2022-08-05T09:41:38.266Z,29.64
2022-08-05T09:46:51.728Z,29.67
2022-08-05T09:51:49.717Z,29.76
2022-08-05T09:56:57.649Z,29.77
2022-08-05T10:02:03.672Z,29.79
2022-08-05T10:07:25.032Z,29.82
2022-08-05T10:12:30.948Z,29.85
2022-08-05T10:17:37.840Z,29.90
2022-08-05T10:22:37.691Z,29.95
2022-08-05T10:28:09.239Z,29.96
2022-08-05T10:33:02.068Z,29.98
2022-08-05T10:37:54.867Z,30.03
2022-08-05T10:43:02.104Z,30.03
2022-08-05T10:48:31.508Z,30.07
2022-08-05T10:53:17.494Z,30.10
2022-08-05T10:58:35.726Z,30.13
2022-08-05T11:03:31.107Z,30.16
2022-08-05T11:08:39.338Z,30.22
2022-08-05T11:13:54.995Z,30.28
2022-08-05T11:18:52.762Z,30.35
2022-08-05T11:24:04.751Z,30.36
2022-08-05T11:29:12.668Z,30.38
2022-08-05T11:34:14.808Z,30.39
2022-08-05T11:39:21.723Z,30.39
2022-08-05T11:44:40.752Z,30.45
2022-08-05T11:49:36.175Z,30.39
2022-08-05T11:54:43.533Z,30.44
2022-08-05T11:59:50.897Z,30.46
2022-08-05T12:04:59.204Z,30.45
2022-08-05T12:10:09.556Z,30.47
2022-08-05T12:15:16.651Z,30.42
2022-08-05T12:20:28.803Z,30.46
2022-08-05T12:25:28.569Z,30.52
2022-08-05T12:30:34.000Z,30.57
2022-08-05T12:35:43.105Z,30.62
2022-08-05T12:40:48.458Z,30.63
2022-08-05T12:45:55.737Z,30.61
2022-08-05T12:51:02.939Z,30.61
2022-08-05T12:56:34.330Z,30.57
2022-08-05T13:02:01.963Z,30.59
2022-08-05T13:06:24.540Z,30.56
2022-08-05T13:12:02.352Z,30.55
2022-08-05T13:16:39.072Z,30.60
2022-08-05T13:21:52.337Z,30.61
2022-08-05T13:26:53.506Z,30.61
2022-08-05T13:32:04.267Z,30.63
2022-08-05T13:37:07.911Z,30.65
2022-08-05T13:42:15.408Z,30.69
2022-08-05T13:47:36.142Z,30.69
2022-08-05T13:52:29.613Z,30.65
2022-08-05T13:57:50.573Z,30.64
2022-08-05T14:02:44.113Z,30.61
2022-08-05T14:08:01.010Z,30.65
2022-08-05T14:12:59.660Z,30.71
2022-08-05T14:18:06.499Z,30.72
2022-08-05T14:23:13.689Z,30.72
2022-08-05T14:28:26.397Z,30.78
2022-08-05T14:33:32.442Z,30.78
2022-08-05T14:38:36.410Z,30.77
2022-08-05T14:43:57.779Z,30.76
2022-08-05T14:48:50.424Z,30.80
2022-08-05T14:54:26.152Z,30.80
2022-08-05T14:59:04.803Z,30.80
2022-08-05T15:04:12.041Z,30.78
2022-08-05T15:09:52.044Z,30.77
2022-08-05T15:14:35.097Z,30.76
2022-08-05T15:19:33.816Z,30.74
2022-08-05T15:24:41.073Z,30.74
2022-08-05T15:29:48.996Z,30.76
2022-08-05T15:34:55.552Z,30.75
2022-08-05T15:40:59.775Z,30.74
2022-08-05T15:45:10.009Z,30.74
2022-08-05T15:50:17.204Z,30.71
2022-08-05T15:56:01.339Z,30.70
2022-08-05T16:00:50.196Z,30.69
2022-08-05T16:05:39.169Z,30.66
2022-08-05T16:10:46.249Z,30.67
2022-08-05T16:15:53.519Z,30.64
2022-08-05T16:21:03.966Z,30.64
2022-08-05T16:26:07.928Z,30.64
2022-08-05T16:31:15.198Z,30.61
2022-08-05T16:36:23.904Z,30.55
2022-08-05T16:42:14.590Z,30.55
2022-08-05T16:46:36.968Z,30.53
2022-08-05T16:51:50.988Z,30.51
2022-08-05T16:56:51.940Z,30.49
2022-08-05T17:02:00.874Z,30.47
2022-08-05T17:07:11.491Z,30.45
2022-08-05T17:12:13.233Z,30.45
2022-08-05T17:17:20.517Z,30.53
2022-08-05T17:22:28.078Z,30.60
2022-08-05T17:27:34.930Z,30.54
2022-08-05T17:32:42.347Z,30.51
2022-08-05T17:37:49.446Z,30.53
2022-08-05T17:42:56.615Z,30.54
2022-08-05T17:48:03.901Z,30.55
2022-08-05T17:53:11.149Z,30.54
2022-08-05T17:58:21.718Z,30.55
2022-08-05T18:03:58.642Z,30.55
2022-08-05T18:08:32.922Z,30.57
2022-08-05T18:13:43.808Z,30.55
2022-08-05T18:18:47.966Z,30.60
2022-08-05T18:23:54.669Z,30.56
2022-08-05T18:29:01.871Z,30.55
2022-08-05T18:34:11.977Z,30.55
2022-08-05T18:39:42.220Z,30.51
2022-08-05T18:44:32.953Z,30.51
2022-08-05T18:49:30.868Z,30.55
2022-08-05T18:54:41.418Z,30.52
2022-08-05T19:00:03.129Z,30.51
2022-08-05T19:05:02.073Z,30.53
2022-08-05T19:10:01.022Z,30.55
2022-08-05T19:15:25.029Z,30.55
2022-08-05T19:20:16.370Z,30.51
2022-08-05T19:25:30.084Z,30.42
2022-08-05T19:30:31.608Z,30.46
2022-08-05T19:35:56.013Z,30.46
2022-08-05T19:40:46.550Z,30.42
2022-08-05T19:45:54.763Z,30.34
2022-08-05T19:51:01.445Z,29.91
2022-08-05T19:56:14.878Z,29.63
2022-08-05T20:01:17.541Z,29.83
2022-08-05T20:06:29.171Z,30.05
2022-08-05T20:11:31.715Z,29.96
2022-08-05T20:16:39.199Z,29.63
2022-08-05T20:21:46.608Z,29.74
2022-08-05T20:26:53.924Z,29.75
2022-08-05T20:32:01.192Z,29.64
2022-08-05T20:37:17.773Z,29.78
2022-08-05T20:42:15.729Z,29.75
2022-08-05T20:47:32.094Z,29.71
2022-08-05T20:52:30.290Z,29.68
2022-08-05T20:57:44.057Z,29.65
2022-08-05T21:02:51.617Z,29.60
2022-08-05T21:07:52.479Z,29.62
2022-08-05T21:13:11.329Z,29.67
2022-08-05T21:18:06.428Z,29.65
2022-08-05T21:23:14.123Z,29.45
2022-08-05T21:28:23.737Z,29.27
2022-08-05T21:33:36.988Z,28.68
2022-08-05T21:38:38.734Z,28.76
2022-08-05T21:43:42.625Z,28.61
2022-08-05T21:48:49.821Z,28.48
2022-08-05T21:54:03.511Z,28.55
2022-08-05T21:59:07.743Z,28.19
2022-08-05T22:04:13.490Z,27.97
2022-08-05T22:09:21.545Z,27.85
2022-08-05T22:14:35.256Z,27.70
2022-08-05T22:20:00.767Z,27.85
2022-08-05T22:24:51.653Z,28.05
2022-08-05T22:29:47.582Z,28.10
2022-08-05T22:34:54.795Z,27.87
2022-08-05T22:40:02.130Z,27.96
2022-08-05T22:45:09.258Z,27.69
2022-08-05T22:50:20.401Z,27.51
2022-08-05T22:55:23.782Z,27.28
2022-08-05T23:00:31.325Z,27.28
2022-08-05T23:05:38.313Z,27.39
2022-08-05T23:10:46.547Z,27.46
2022-08-05T23:15:53.794Z,27.44
2022-08-05T23:21:01.078Z,27.52
2022-08-05T23:26:08.353Z,27.52
2022-08-05T23:31:17.401Z,27.24
2022-08-05T23:36:28.255Z,27.22
2022-08-05T23:41:30.061Z,27.13
2022-08-05T23:46:39.294Z,27.15
2022-08-05T23:51:44.590Z,27.14
2022-08-05T23:56:51.837Z,26.99
